sensor_id;sensor_type;location;lat;lon;timestamp;P1;durP1;ratioP1;P2;durP2;ratioP2
41568;SDS011;27283;52.504;13.358;2022-10-28T00:01:57;15.27;;;8.40;;
41568;SDS011;27283;52.504;13.358;2022-10-28T00:04:31;16.40;;;8.68;;
41568;SDS011;27283;52.504;13.358;2022-10-28T00:07:02;19.15;;;8.38;;
41568;SDS011;27283;52.504;13.358;2022-10-28T00:09:37;18.77;;;8.70;;
41568;SDS011;27283;52.504;13.358;2022-10-28T00:12:09;16.90;;;8.40;;
41568;SDS011;27283;52.504;13.358;2022-10-28T00:14:41;17.50;;;8.35;;
41568;SDS011;27283;52.504;13.358;2022-10-28T00:17:13;16.48;;;8.77;;
41568;SDS011;27283;52.504;13.358;2022-10-28T00:19:45;20.98;;;8.73;;
41568;SDS011;27283;52.504;13.358;2022-10-28T00:22:17;15.00;;;8.40;;
41568;SDS011;27283;52.504;13.358;2022-10-28T00:24:52;16.90;;;8.85;;
41568;SDS011;27283;52.504;13.358;2022-10-28T00:27:24;14.80;;;8.35;;
41568;SDS011;27283;52.504;13.358;2022-10-28T00:29:57;16.13;;;8.85;;
41568;SDS011;27283;52.504;13.358;2022-10-28T00:32:29;15.38;;;8.63;;
41568;SDS011;27283;52.504;13.358;2022-10-28T00:35:02;15.88;;;8.57;;
41568;SDS011;27283;52.504;13.358;2022-10-28T00:37:34;17.35;;;8.55;;
41568;SDS011;27283;52.504;13.358;2022-10-28T00:40:10;16.40;;;8.48;;
41568;SDS011;27283;52.504;13.358;2022-10-28T00:42:42;20.52;;;8.75;;
41568;SDS011;27283;52.504;13.358;2022-10-28T00:45:14;14.70;;;7.70;;
41568;SDS011;27283;52.504;13.358;2022-10-28T00:47:47;13.27;;;8.30;;
41568;SDS011;27283;52.504;13.358;2022-10-28T00:53:19;14.02;;;8.63;;
41568;SDS011;27283;52.504;13.358;2022-10-28T00:55:57;17.38;;;8.40;;
41568;SDS011;27283;52.504;13.358;2022-10-28T00:58:32;15.85;;;8.38;;
41568;SDS011;27283;52.504;13.358;2022-10-28T01:01:08;17.23;;;8.27;;
41568;SDS011;27283;52.504;13.358;2022-10-28T01:04:26;14.00;;;7.93;;
41568;SDS011;27283;52.504;13.358;2022-10-28T01:06:58;14.88;;;8.13;;
41568;SDS011;27283;52.504;13.358;2022-10-28T01:09:31;14.88;;;8.27;;
41568;SDS011;27283;52.504;13.358;2022-10-28T01:12:07;18.98;;;8.98;;
41568;SDS011;27283;52.504;13.358;2022-10-28T01:14:49;15.45;;;8.18;;
41568;SDS011;27283;52.504;13.358;2022-10-28T01:17:38;17.10;;;8.40;;
41568;SDS011;27283;52.504;13.358;2022-10-28T01:20:26;15.50;;;8.80;;
41568;SDS011;27283;52.504;13.358;2022-10-28T01:23:18;17.60;;;8.88;;
41568;SDS011;27283;52.504;13.358;2022-10-28T01:25:58;15.25;;;8.73;;
41568;SDS011;27283;52.504;13.358;2022-10-28T01:28:55;15.60;;;9.00;;
41568;SDS011;27283;52.504;13.358;2022-10-28T01:32:00;15.43;;;8.43;;
41568;SDS011;27283;52.504;13.358;2022-10-28T01:34:40;15.05;;;8.45;;
41568;SDS011;27283;52.504;13.358;2022-10-28T01:37:23;18.15;;;8.82;;
41568;SDS011;27283;52.504;13.358;2022-10-28T01:40:03;14.90;;;8.63;;
41568;SDS011;27283;52.504;13.358;2022-10-28T01:42:43;20.38;;;9.02;;
41568;SDS011;27283;52.504;13.358;2022-10-28T01:45:22;16.48;;;8.85;;
41568;SDS011;27283;52.504;13.358;2022-10-28T01:48:01;15.05;;;8.25;;
41568;SDS011;27283;52.504;13.358;2022-10-28T01:50:38;20.58;;;9.70;;
41568;SDS011;27283;52.504;13.358;2022-10-28T01:53:17;17.00;;;9.50;;
41568;SDS011;27283;52.504;13.358;2022-10-28T01:55:54;15.85;;;8.88;;
41568;SDS011;27283;52.504;13.358;2022-10-28T01:58:32;14.18;;;8.90;;
41568;SDS011;27283;52.504;13.358;2022-10-28T02:01:07;17.13;;;9.77;;
41568;SDS011;27283;52.504;13.358;2022-10-28T02:03:43;15.88;;;9.07;;
41568;SDS011;27283;52.504;13.358;2022-10-28T02:06:16;17.17;;;9.98;;
41568;SDS011;27283;52.504;13.358;2022-10-28T02:09:05;15.38;;;9.57;;
41568;SDS011;27283;52.504;13.358;2022-10-28T02:11:52;17.20;;;9.20;;
41568;SDS011;27283;52.504;13.358;2022-10-28T02:14:39;18.40;;;10.73;;
41568;SDS011;27283;52.504;13.358;2022-10-28T02:17:25;19.40;;;10.55;;
41568;SDS011;27283;52.504;13.358;2022-10-28T02:20:11;18.02;;;10.38;;
41568;SDS011;27283;52.504;13.358;2022-10-28T02:22:49;18.98;;;10.88;;
41568;SDS011;27283;52.504;13.358;2022-10-28T02:25:24;19.10;;;10.32;;
41568;SDS011;27283;52.504;13.358;2022-10-28T02:28:03;18.63;;;10.85;;
41568;SDS011;27283;52.504;13.358;2022-10-28T02:30:59;19.98;;;10.35;;
41568;SDS011;27283;52.504;13.358;2022-10-28T02:33:34;19.60;;;10.35;;
41568;SDS011;27283;52.504;13.358;2022-10-28T02:36:13;19.77;;;11.02;;
41568;SDS011;27283;52.504;13.358;2022-10-28T02:38:49;20.45;;;11.32;;
41568;SDS011;27283;52.504;13.358;2022-10-28T02:41:25;22.40;;;11.57;;
41568;SDS011;27283;52.504;13.358;2022-10-28T02:44:03;19.38;;;11.32;;
41568;SDS011;27283;52.504;13.358;2022-10-28T02:46:38;21.90;;;11.50;;
41568;SDS011;27283;52.504;13.358;2022-10-28T02:49:14;17.17;;;10.38;;
41568;SDS011;27283;52.504;13.358;2022-10-28T02:51:49;19.15;;;10.25;;
41568;SDS011;27283;52.504;13.358;2022-10-28T02:54:26;17.38;;;10.23;;
41568;SDS011;27283;52.504;13.358;2022-10-28T02:57:03;20.55;;;10.77;;
41568;SDS011;27283;52.504;13.358;2022-10-28T02:59:38;19.25;;;10.38;;
41568;SDS011;27283;52.504;13.358;2022-10-28T03:02:10;18.05;;;10.00;;
41568;SDS011;27283;52.504;13.358;2022-10-28T03:04:43;17.38;;;10.43;;
41568;SDS011;27283;52.504;13.358;2022-10-28T03:07:17;18.35;;;10.15;;
41568;SDS011;27283;52.504;13.358;2022-10-28T03:09:50;19.75;;;10.65;;
41568;SDS011;27283;52.504;13.358;2022-10-28T03:12:22;20.88;;;10.32;;
41568;SDS011;27283;52.504;13.358;2022-10-28T03:14:54;19.67;;;10.57;;
41568;SDS011;27283;52.504;13.358;2022-10-28T03:17:25;19.00;;;10.73;;
41568;SDS011;27283;52.504;13.358;2022-10-28T03:19:57;19.02;;;10.27;;
41568;SDS011;27283;52.504;13.358;2022-10-28T03:22:32;20.02;;;9.73;;
41568;SDS011;27283;52.504;13.358;2022-10-28T03:25:05;21.38;;;10.38;;
41568;SDS011;27283;52.504;13.358;2022-10-28T03:27:38;17.42;;;9.60;;
41568;SDS011;27283;52.504;13.358;2022-10-28T03:30:11;19.27;;;9.95;;
41568;SDS011;27283;52.504;13.358;2022-10-28T03:32:45;17.73;;;9.98;;
41568;SDS011;27283;52.504;13.358;2022-10-28T03:35:22;21.48;;;10.10;;
41568;SDS011;27283;52.504;13.358;2022-10-28T03:37:56;21.02;;;11.00;;
41568;SDS011;27283;52.504;13.358;2022-10-28T03:40:29;20.85;;;11.20;;
41568;SDS011;27283;52.504;13.358;2022-10-28T03:43:01;23.27;;;12.02;;
41568;SDS011;27283;52.504;13.358;2022-10-28T03:45:34;21.90;;;11.88;;
41568;SDS011;27283;52.504;13.358;2022-10-28T03:48:06;21.45;;;11.77;;
41568;SDS011;27283;52.504;13.358;2022-10-28T03:50:38;25.23;;;11.88;;
41568;SDS011;27283;52.504;13.358;2022-10-28T03:53:12;22.13;;;11.40;;
41568;SDS011;27283;52.504;13.358;2022-10-28T03:55:50;26.27;;;11.45;;
41568;SDS011;27283;52.504;13.358;2022-10-28T03:58:22;24.35;;;12.13;;
41568;SDS011;27283;52.504;13.358;2022-10-28T04:00:55;25.40;;;11.63;;
41568;SDS011;27283;52.504;13.358;2022-10-28T04:03:28;23.95;;;11.60;;
41568;SDS011;27283;52.504;13.358;2022-10-28T04:06:01;26.58;;;11.80;;
41568;SDS011;27283;52.504;13.358;2022-10-28T04:08:36;22.73;;;11.25;;
41568;SDS011;27283;52.504;13.358;2022-10-28T04:11:09;21.38;;;10.68;;
41568;SDS011;27283;52.504;13.358;2022-10-28T04:13:41;19.25;;;10.98;;
41568;SDS011;27283;52.504;13.358;2022-10-28T04:16:13;20.48;;;11.00;;
41568;SDS011;27283;52.504;13.358;2022-10-28T04:18:44;19.65;;;11.40;;
41568;SDS011;27283;52.504;13.358;2022-10-28T04:21:17;20.60;;;11.25;;
41568;SDS011;27283;52.504;13.358;2022-10-28T04:23:52;20.33;;;11.45;;
41568;SDS011;27283;52.504;13.358;2022-10-28T04:26:27;21.90;;;11.48;;
41568;SDS011;27283;52.504;13.358;2022-10-28T04:29:00;25.90;;;12.52;;
41568;SDS011;27283;52.504;13.358;2022-10-28T04:31:32;27.15;;;12.70;;
41568;SDS011;27283;52.504;13.358;2022-10-28T04:34:03;27.17;;;12.07;;
41568;SDS011;27283;52.504;13.358;2022-10-28T04:36:37;24.65;;;12.27;;
41568;SDS011;27283;52.504;13.358;2022-10-28T04:39:12;21.95;;;13.05;;
41568;SDS011;27283;52.504;13.358;2022-10-28T04:41:45;21.15;;;12.40;;
41568;SDS011;27283;52.504;13.358;2022-10-28T04:44:17;24.83;;;12.35;;
41568;SDS011;27283;52.504;13.358;2022-10-28T04:46:49;30.23;;;14.02;;
41568;SDS011;27283;52.504;13.358;2022-10-28T04:49:21;24.60;;;13.52;;
41568;SDS011;27283;52.504;13.358;2022-10-28T04:51:54;25.30;;;13.88;;
41568;SDS011;27283;52.504;13.358;2022-10-28T04:54:29;24.83;;;14.00;;
41568;SDS011;27283;52.504;13.358;2022-10-28T04:57:01;20.55;;;13.02;;
41568;SDS011;27283;52.504;13.358;2022-10-28T04:59:33;22.27;;;12.73;;
41568;SDS011;27283;52.504;13.358;2022-10-28T05:02:06;29.60;;;13.30;;
41568;SDS011;27283;52.504;13.358;2022-10-28T05:04:38;18.02;;;11.93;;
41568;SDS011;27283;52.504;13.358;2022-10-28T05:07:24;25.30;;;13.55;;
41568;SDS011;27283;52.504;13.358;2022-10-28T05:09:59;29.58;;;13.43;;
41568;SDS011;27283;52.504;13.358;2022-10-28T05:12:31;25.95;;;14.38;;
41568;SDS011;27283;52.504;13.358;2022-10-28T05:15:04;28.63;;;15.25;;
41568;SDS011;27283;52.504;13.358;2022-10-28T05:17:38;27.63;;;14.80;;
41568;SDS011;27283;52.504;13.358;2022-10-28T05:20:11;25.42;;;14.18;;
41568;SDS011;27283;52.504;13.358;2022-10-28T05:22:44;27.05;;;15.25;;
41568;SDS011;27283;52.504;13.358;2022-10-28T05:25:20;26.27;;;14.32;;
41568;SDS011;27283;52.504;13.358;2022-10-28T05:27:56;27.55;;;13.35;;
41568;SDS011;27283;52.504;13.358;2022-10-28T05:30:28;28.00;;;13.68;;
41568;SDS011;27283;52.504;13.358;2022-10-28T05:33:01;26.25;;;13.93;;
41568;SDS011;27283;52.504;13.358;2022-10-28T05:35:33;25.60;;;13.27;;
41568;SDS011;27283;52.504;13.358;2022-10-28T05:38:06;27.48;;;15.07;;
41568;SDS011;27283;52.504;13.358;2022-10-28T05:40:41;24.40;;;13.25;;
41568;SDS011;27283;52.504;13.358;2022-10-28T05:43:13;25.42;;;14.13;;
41568;SDS011;27283;52.504;13.358;2022-10-28T05:45:50;26.65;;;13.65;;
41568;SDS011;27283;52.504;13.358;2022-10-28T05:48:23;27.50;;;14.10;;
41568;SDS011;27283;52.504;13.358;2022-10-28T05:50:55;27.70;;;13.98;;
41568;SDS011;27283;52.504;13.358;2022-10-28T05:53:27;24.38;;;13.57;;
41568;SDS011;27283;52.504;13.358;2022-10-28T05:56:03;28.83;;;13.88;;
41568;SDS011;27283;52.504;13.358;2022-10-28T05:58:35;25.58;;;13.70;;
41568;SDS011;27283;52.504;13.358;2022-10-28T06:01:08;29.50;;;14.95;;
41568;SDS011;27283;52.504;13.358;2022-10-28T06:03:40;31.05;;;13.55;;
41568;SDS011;27283;52.504;13.358;2022-10-28T06:06:13;23.75;;;12.85;;
41568;SDS011;27283;52.504;13.358;2022-10-28T06:08:45;26.02;;;13.15;;
41568;SDS011;27283;52.504;13.358;2022-10-28T06:11:20;25.80;;;13.00;;
41568;SDS011;27283;52.504;13.358;2022-10-28T06:13:52;26.77;;;12.73;;
41568;SDS011;27283;52.504;13.358;2022-10-28T06:16:25;24.20;;;12.35;;
41568;SDS011;27283;52.504;13.358;2022-10-28T06:18:57;24.67;;;11.77;;
41568;SDS011;27283;52.504;13.358;2022-10-28T06:21:29;21.70;;;10.70;;
41568;SDS011;27283;52.504;13.358;2022-10-28T06:24:01;22.88;;;11.32;;
41568;SDS011;27283;52.504;13.358;2022-10-28T06:26:40;21.02;;;10.75;;
41568;SDS011;27283;52.504;13.358;2022-10-28T06:29:13;19.15;;;10.55;;
41568;SDS011;27283;52.504;13.358;2022-10-28T06:31:46;20.23;;;10.73;;
41568;SDS011;27283;52.504;13.358;2022-10-28T06:34:20;18.67;;;10.52;;
41568;SDS011;27283;52.504;13.358;2022-10-28T06:36:54;17.92;;;8.90;;
41568;SDS011;27283;52.504;13.358;2022-10-28T06:39:29;17.48;;;9.38;;
41568;SDS011;27283;52.504;13.358;2022-10-28T06:42:06;19.67;;;10.52;;
41568;SDS011;27283;52.504;13.358;2022-10-28T06:44:37;19.13;;;9.70;;
41568;SDS011;27283;52.504;13.358;2022-10-28T06:47:11;19.98;;;9.90;;
41568;SDS011;27283;52.504;13.358;2022-10-28T06:49:43;17.30;;;9.18;;
41568;SDS011;27283;52.504;13.358;2022-10-28T06:52:14;19.95;;;10.02;;
41568;SDS011;27283;52.504;13.358;2022-10-28T06:54:48;23.23;;;10.45;;
41568;SDS011;27283;52.504;13.358;2022-10-28T06:57:22;19.10;;;10.00;;
41568;SDS011;27283;52.504;13.358;2022-10-28T06:59:57;20.13;;;9.77;;
41568;SDS011;27283;52.504;13.358;2022-10-28T07:02:29;18.88;;;9.55;;
41568;SDS011;27283;52.504;13.358;2022-10-28T07:05:02;20.70;;;9.70;;
41568;SDS011;27283;52.504;13.358;2022-10-28T07:07:36;19.02;;;9.18;;
41568;SDS011;27283;52.504;13.358;2022-10-28T07:10:10;19.52;;;9.52;;
41568;SDS011;27283;52.504;13.358;2022-10-28T07:12:45;17.92;;;9.68;;
41568;SDS011;27283;52.504;13.358;2022-10-28T07:15:18;21.55;;;10.02;;
41568;SDS011;27283;52.504;13.358;2022-10-28T07:17:52;18.45;;;9.68;;
41568;SDS011;27283;52.504;13.358;2022-10-28T07:20:26;19.25;;;8.95;;
41568;SDS011;27283;52.504;13.358;2022-10-28T07:23:00;18.23;;;8.60;;
41568;SDS011;27283;52.504;13.358;2022-10-28T07:25:33;21.80;;;8.88;;
41568;SDS011;27283;52.504;13.358;2022-10-28T07:28:07;23.33;;;9.50;;
41568;SDS011;27283;52.504;13.358;2022-10-28T07:30:40;21.50;;;9.50;;
41568;SDS011;27283;52.504;13.358;2022-10-28T07:33:11;19.42;;;8.48;;
41568;SDS011;27283;52.504;13.358;2022-10-28T07:35:44;19.00;;;8.98;;
41568;SDS011;27283;52.504;13.358;2022-10-28T07:38:16;22.13;;;9.10;;
41568;SDS011;27283;52.504;13.358;2022-10-28T07:40:48;16.75;;;8.35;;
41568;SDS011;27283;52.504;13.358;2022-10-28T07:43:23;18.63;;;8.35;;
41568;SDS011;27283;52.504;13.358;2022-10-28T07:45:55;15.15;;;7.25;;
41568;SDS011;27283;52.504;13.358;2022-10-28T07:48:27;15.00;;;7.35;;
41568;SDS011;27283;52.504;13.358;2022-10-28T07:51:00;15.30;;;7.55;;
41568;SDS011;27283;52.504;13.358;2022-10-28T07:53:32;18.95;;;8.90;;
41568;SDS011;27283;52.504;13.358;2022-10-28T07:56:06;15.27;;;8.00;;
41568;SDS011;27283;52.504;13.358;2022-10-28T07:58:43;18.45;;;8.10;;
41568;SDS011;27283;52.504;13.358;2022-10-28T08:01:18;18.77;;;8.63;;
41568;SDS011;27283;52.504;13.358;2022-10-28T08:03:51;18.15;;;7.22;;
41568;SDS011;27283;52.504;13.358;2022-10-28T08:06:24;15.02;;;7.13;;
41568;SDS011;27283;52.504;13.358;2022-10-28T08:08:56;17.88;;;7.45;;
41568;SDS011;27283;52.504;13.358;2022-10-28T08:11:28;17.42;;;6.53;;
41568;SDS011;27283;52.504;13.358;2022-10-28T08:14:03;17.63;;;7.50;;
41568;SDS011;27283;52.504;13.358;2022-10-28T08:16:35;16.40;;;6.68;;
41568;SDS011;27283;52.504;13.358;2022-10-28T08:19:09;15.77;;;7.10;;
41568;SDS011;27283;52.504;13.358;2022-10-28T08:21:41;17.38;;;6.72;;
41568;SDS011;27283;52.504;13.358;2022-10-28T08:24:13;16.20;;;6.72;;
41568;SDS011;27283;52.504;13.358;2022-10-28T08:26:45;17.92;;;6.90;;
41568;SDS011;27283;52.504;13.358;2022-10-28T08:29:20;13.88;;;6.50;;
41568;SDS011;27283;52.504;13.358;2022-10-28T08:31:57;13.45;;;6.30;;
41568;SDS011;27283;52.504;13.358;2022-10-28T08:34:29;17.05;;;6.22;;
41568;SDS011;27283;52.504;13.358;2022-10-28T08:37:04;15.48;;;6.22;;
41568;SDS011;27283;52.504;13.358;2022-10-28T08:39:36;13.52;;;6.20;;
41568;SDS011;27283;52.504;13.358;2022-10-28T08:42:17;16.20;;;6.25;;
41568;SDS011;27283;52.504;13.358;2022-10-28T08:45:06;13.45;;;5.35;;
41568;SDS011;27283;52.504;13.358;2022-10-28T08:47:52;14.70;;;5.43;;
41568;SDS011;27283;52.504;13.358;2022-10-28T08:50:33;16.58;;;6.45;;
41568;SDS011;27283;52.504;13.358;2022-10-28T08:53:13;16.40;;;8.05;;
41568;SDS011;27283;52.504;13.358;2022-10-28T08:55:49;15.30;;;6.65;;
41568;SDS011;27283;52.504;13.358;2022-10-28T08:58:25;16.25;;;6.78;;
41568;SDS011;27283;52.504;13.358;2022-10-28T09:01:04;17.50;;;7.25;;
41568;SDS011;27283;52.504;13.358;2022-10-28T09:03:40;14.57;;;6.03;;
41568;SDS011;27283;52.504;13.358;2022-10-28T09:06:15;14.70;;;5.65;;
41568;SDS011;27283;52.504;13.358;2022-10-28T09:08:48;12.45;;;6.10;;
41568;SDS011;27283;52.504;13.358;2022-10-28T09:11:34;10.75;;;5.07;;
41568;SDS011;27283;52.504;13.358;2022-10-28T09:14:28;15.65;;;5.60;;
41568;SDS011;27283;52.504;13.358;2022-10-28T09:17:13;15.00;;;5.00;;
41568;SDS011;27283;52.504;13.358;2022-10-28T09:19:49;11.27;;;4.60;;
41568;SDS011;27283;52.504;13.358;2022-10-28T09:22:24;15.60;;;5.28;;
41568;SDS011;27283;52.504;13.358;2022-10-28T09:25:04;11.27;;;5.20;;
41568;SDS011;27283;52.504;13.358;2022-10-28T09:27:48;15.07;;;5.47;;
41568;SDS011;27283;52.504;13.358;2022-10-28T09:30:34;11.82;;;5.22;;
41568;SDS011;27283;52.504;13.358;2022-10-28T09:33:20;17.60;;;4.93;;
41568;SDS011;27283;52.504;13.358;2022-10-28T09:36:09;16.60;;;5.10;;
41568;SDS011;27283;52.504;13.358;2022-10-28T09:38:45;13.38;;;5.03;;
41568;SDS011;27283;52.504;13.358;2022-10-28T09:41:18;14.38;;;5.35;;
41568;SDS011;27283;52.504;13.358;2022-10-28T09:44:23;13.93;;;4.93;;
41568;SDS011;27283;52.504;13.358;2022-10-28T09:47:03;14.02;;;4.95;;
41568;SDS011;27283;52.504;13.358;2022-10-28T09:49:47;16.85;;;5.40;;
41568;SDS011;27283;52.504;13.358;2022-10-28T09:52:23;16.90;;;5.22;;
41568;SDS011;27283;52.504;13.358;2022-10-28T09:55:01;17.25;;;5.30;;
41568;SDS011;27283;52.504;13.358;2022-10-28T09:57:38;10.50;;;4.75;;
41568;SDS011;27283;52.504;13.358;2022-10-28T10:00:11;11.32;;;4.88;;
41568;SDS011;27283;52.504;13.358;2022-10-28T10:02:45;13.77;;;4.78;;
41568;SDS011;27283;52.504;13.358;2022-10-28T10:05:20;15.02;;;4.82;;
41568;SDS011;27283;52.504;13.358;2022-10-28T10:07:53;14.88;;;5.13;;
41568;SDS011;27283;52.504;13.358;2022-10-28T10:10:30;11.20;;;4.82;;
41568;SDS011;27283;52.504;13.358;2022-10-28T10:13:06;12.95;;;5.22;;
41568;SDS011;27283;52.504;13.358;2022-10-28T10:15:41;14.02;;;4.55;;
41568;SDS011;27283;52.504;13.358;2022-10-28T10:18:17;34.80;;;16.75;;
41568;SDS011;27283;52.504;13.358;2022-10-28T10:20:56;11.38;;;4.50;;
41568;SDS011;27283;52.504;13.358;2022-10-28T10:23:29;15.73;;;4.03;;
41568;SDS011;27283;52.504;13.358;2022-10-28T10:26:04;11.18;;;4.53;;
41568;SDS011;27283;52.504;13.358;2022-10-28T10:28:42;14.13;;;4.82;;
41568;SDS011;27283;52.504;13.358;2022-10-28T10:31:17;13.32;;;4.45;;
41568;SDS011;27283;52.504;13.358;2022-10-28T10:33:51;9.30;;;3.70;;
41568;SDS011;27283;52.504;13.358;2022-10-28T10:36:27;11.98;;;4.25;;
41568;SDS011;27283;52.504;13.358;2022-10-28T10:39:00;14.95;;;4.10;;
41568;SDS011;27283;52.504;13.358;2022-10-28T10:41:33;10.98;;;4.05;;
41568;SDS011;27283;52.504;13.358;2022-10-28T10:44:22;12.00;;;3.67;;
41568;SDS011;27283;52.504;13.358;2022-10-28T10:47:15;9.73;;;4.00;;
41568;SDS011;27283;52.504;13.358;2022-10-28T10:49:50;9.30;;;3.90;;
41568;SDS011;27283;52.504;13.358;2022-10-28T10:52:26;12.32;;;3.97;;
41568;SDS011;27283;52.504;13.358;2022-10-28T10:55:00;11.80;;;4.05;;
41568;SDS011;27283;52.504;13.358;2022-10-28T10:57:35;7.88;;;3.70;;
41568;SDS011;27283;52.504;13.358;2022-10-28T11:00:13;13.43;;;4.18;;
41568;SDS011;27283;52.504;13.358;2022-10-28T11:02:47;10.77;;;3.85;;
41568;SDS011;27283;52.504;13.358;2022-10-28T11:05:24;12.43;;;4.10;;
41568;SDS011;27283;52.504;13.358;2022-10-28T11:08:10;18.92;;;4.60;;
41568;SDS011;27283;52.504;13.358;2022-10-28T11:11:18;11.50;;;3.65;;
41568;SDS011;27283;52.504;13.358;2022-10-28T11:14:00;14.98;;;3.88;;
41568;SDS011;27283;52.504;13.358;2022-10-28T11:16:48;15.98;;;3.70;;
41568;SDS011;27283;52.504;13.358;2022-10-28T11:19:21;22.48;;;7.10;;
41568;SDS011;27283;52.504;13.358;2022-10-28T11:22:05;14.40;;;3.88;;
41568;SDS011;27283;52.504;13.358;2022-10-28T11:28:12;10.40;;;4.22;;
41568;SDS011;27283;52.504;13.358;2022-10-28T11:30:59;13.40;;;4.20;;
41568;SDS011;27283;52.504;13.358;2022-10-28T11:33:42;12.45;;;4.15;;
41568;SDS011;27283;52.504;13.358;2022-10-28T11:36:22;10.80;;;4.07;;
41568;SDS011;27283;52.504;13.358;2022-10-28T11:39:23;17.67;;;4.10;;
41568;SDS011;27283;52.504;13.358;2022-10-28T11:42:28;11.68;;;4.55;;
41568;SDS011;27283;52.504;13.358;2022-10-28T11:48:48;15.57;;;5.00;;
41568;SDS011;27283;52.504;13.358;2022-10-28T13:00:47;13.98;;;4.28;;
41568;SDS011;27283;52.504;13.358;2022-10-28T13:03:49;11.10;;;4.03;;
41568;SDS011;27283;52.504;13.358;2022-10-28T13:06:27;11.93;;;3.85;;
41568;SDS011;27283;52.504;13.358;2022-10-28T13:12:12;10.82;;;4.32;;
41568;SDS011;27283;52.504;13.358;2022-10-28T13:21:29;12.75;;;5.70;;
41568;SDS011;27283;52.504;13.358;2022-10-28T13:24:15;13.95;;;3.53;;
41568;SDS011;27283;52.504;13.358;2022-10-28T13:26:56;13.90;;;3.95;;
41568;SDS011;27283;52.504;13.358;2022-10-28T13:29:32;13.27;;;3.90;;
41568;SDS011;27283;52.504;13.358;2022-10-28T13:35:18;14.60;;;4.10;;
41568;SDS011;27283;52.504;13.358;2022-10-28T13:37:55;15.38;;;4.00;;
41568;SDS011;27283;52.504;13.358;2022-10-28T13:49:35;14.20;;;3.88;;
41568;SDS011;27283;52.504;13.358;2022-10-28T13:52:20;10.95;;;3.90;;
41568;SDS011;27283;52.504;13.358;2022-10-28T13:54:53;11.27;;;3.83;;
41568;SDS011;27283;52.504;13.358;2022-10-28T13:57:29;11.20;;;3.63;;
41568;SDS011;27283;52.504;13.358;2022-10-28T14:00:32;13.73;;;4.25;;
41568;SDS011;27283;52.504;13.358;2022-10-28T14:03:14;13.63;;;3.83;;
41568;SDS011;27283;52.504;13.358;2022-10-28T14:05:51;14.70;;;3.95;;
41568;SDS011;27283;52.504;13.358;2022-10-28T14:08:29;19.27;;;3.95;;
41568;SDS011;27283;52.504;13.358;2022-10-28T14:11:09;15.93;;;4.03;;
41568;SDS011;27283;52.504;13.358;2022-10-28T14:13:46;17.33;;;4.25;;
41568;SDS011;27283;52.504;13.358;2022-10-28T14:16:22;12.60;;;3.80;;
41568;SDS011;27283;52.504;13.358;2022-10-28T14:18:58;11.90;;;3.53;;
41568;SDS011;27283;52.504;13.358;2022-10-28T14:21:50;12.65;;;4.13;;
41568;SDS011;27283;52.504;13.358;2022-10-28T14:24:33;16.05;;;4.00;;
41568;SDS011;27283;52.504;13.358;2022-10-28T14:30:13;15.52;;;4.30;;
41568;SDS011;27283;52.504;13.358;2022-10-28T14:32:57;12.75;;;4.13;;
41568;SDS011;27283;52.504;13.358;2022-10-28T14:35:36;16.25;;;4.40;;
41568;SDS011;27283;52.504;13.358;2022-10-28T14:38:18;13.02;;;4.13;;
41568;SDS011;27283;52.504;13.358;2022-10-28T14:41:30;19.52;;;4.60;;
41568;SDS011;27283;52.504;13.358;2022-10-28T14:44:29;13.55;;;3.88;;
41568;SDS011;27283;52.504;13.358;2022-10-28T14:47:29;11.65;;;4.15;;
41568;SDS011;27283;52.504;13.358;2022-10-28T14:50:21;15.25;;;4.15;;
41568;SDS011;27283;52.504;13.358;2022-10-28T14:52:56;14.07;;;4.20;;
41568;SDS011;27283;52.504;13.358;2022-10-28T14:55:37;13.15;;;5.07;;
41568;SDS011;27283;52.504;13.358;2022-10-28T14:58:21;11.85;;;5.15;;
41568;SDS011;27283;52.504;13.358;2022-10-28T15:00:57;13.75;;;5.00;;
41568;SDS011;27283;52.504;13.358;2022-10-28T15:03:37;14.65;;;4.88;;
41568;SDS011;27283;52.504;13.358;2022-10-28T15:06:23;12.77;;;4.30;;
41568;SDS011;27283;52.504;13.358;2022-10-28T15:09:01;14.93;;;5.03;;
41568;SDS011;27283;52.504;13.358;2022-10-28T15:11:36;15.95;;;4.70;;
41568;SDS011;27283;52.504;13.358;2022-10-28T15:14:28;12.35;;;4.68;;
41568;SDS011;27283;52.504;13.358;2022-10-28T15:17:03;18.25;;;4.65;;
41568;SDS011;27283;52.504;13.358;2022-10-28T15:19:46;18.83;;;4.75;;
41568;SDS011;27283;52.504;13.358;2022-10-28T15:22:20;17.77;;;4.65;;
41568;SDS011;27283;52.504;13.358;2022-10-28T15:24:53;12.90;;;4.20;;
41568;SDS011;27283;52.504;13.358;2022-10-28T15:27:30;16.75;;;4.65;;
41568;SDS011;27283;52.504;13.358;2022-10-28T15:30:12;10.63;;;4.50;;
41568;SDS011;27283;52.504;13.358;2022-10-28T15:32:46;13.60;;;4.75;;
41568;SDS011;27283;52.504;13.358;2022-10-28T15:44:23;13.20;;;4.85;;
41568;SDS011;27283;52.504;13.358;2022-10-28T15:47:13;14.00;;;5.03;;
41568;SDS011;27283;52.504;13.358;2022-10-28T15:49:56;14.20;;;5.43;;
41568;SDS011;27283;52.504;13.358;2022-10-28T15:52:34;21.42;;;7.10;;
41568;SDS011;27283;52.504;13.358;2022-10-28T15:55:24;15.07;;;5.25;;
41568;SDS011;27283;52.504;13.358;2022-10-28T15:58:30;14.25;;;5.43;;
41568;SDS011;27283;52.504;13.358;2022-10-28T16:01:07;16.02;;;5.95;;
41568;SDS011;27283;52.504;13.358;2022-10-28T16:03:59;16.88;;;5.82;;
41568;SDS011;27283;52.504;13.358;2022-10-28T16:06:32;18.10;;;5.85;;
41568;SDS011;27283;52.504;13.358;2022-10-28T16:09:11;18.90;;;5.43;;
41568;SDS011;27283;52.504;13.358;2022-10-28T16:11:49;18.27;;;6.13;;
41568;SDS011;27283;52.504;13.358;2022-10-28T16:14:34;22.27;;;6.78;;
41568;SDS011;27283;52.504;13.358;2022-10-28T16:17:16;18.45;;;6.63;;
41568;SDS011;27283;52.504;13.358;2022-10-28T16:19:54;19.27;;;6.75;;
41568;SDS011;27283;52.504;13.358;2022-10-28T16:22:32;17.08;;;6.45;;
41568;SDS011;27283;52.504;13.358;2022-10-28T16:25:11;15.85;;;6.22;;
41568;SDS011;27283;52.504;13.358;2022-10-28T16:27:44;19.20;;;6.70;;
41568;SDS011;27283;52.504;13.358;2022-10-28T16:30:17;19.17;;;8.02;;
41568;SDS011;27283;52.504;13.358;2022-10-28T16:33:10;20.23;;;8.45;;
41568;SDS011;27283;52.504;13.358;2022-10-28T16:35:45;21.40;;;8.32;;
41568;SDS011;27283;52.504;13.358;2022-10-28T16:38:17;17.33;;;7.00;;
41568;SDS011;27283;52.504;13.358;2022-10-28T16:40:51;20.95;;;8.40;;
41568;SDS011;27283;52.504;13.358;2022-10-28T16:43:24;16.42;;;6.78;;
41568;SDS011;27283;52.504;13.358;2022-10-28T16:45:58;15.23;;;7.10;;
41568;SDS011;27283;52.504;13.358;2022-10-28T16:48:37;19.38;;;7.70;;
41568;SDS011;27283;52.504;13.358;2022-10-28T16:51:13;16.42;;;7.28;;
41568;SDS011;27283;52.504;13.358;2022-10-28T16:54:24;20.08;;;6.95;;
41568;SDS011;27283;52.504;13.358;2022-10-28T16:57:08;16.27;;;6.60;;
41568;SDS011;27283;52.504;13.358;2022-10-28T16:59:41;19.60;;;7.05;;
41568;SDS011;27283;52.504;13.358;2022-10-28T17:02:13;25.15;;;9.70;;
41568;SDS011;27283;52.504;13.358;2022-10-28T17:04:51;23.75;;;8.48;;
41568;SDS011;27283;52.504;13.358;2022-10-28T17:07:29;19.70;;;7.45;;
41568;SDS011;27283;52.504;13.358;2022-10-28T17:10:02;21.15;;;8.15;;
41568;SDS011;27283;52.504;13.358;2022-10-28T17:12:35;21.67;;;7.18;;